createdAt,value
2023-03-11T00:00:58.850Z,88.19
2023-03-11T00:03:27.822Z,88.34
2023-03-11T00:05:56.085Z,88.48
2023-03-11T00:08:24.088Z,88.35
2023-03-11T00:10:52.063Z,88.26
2023-03-11T00:13:19.671Z,88.72
2023-03-11T00:15:48.584Z,88.75
2023-03-11T00:18:16.263Z,88.60
2023-03-11T00:20:43.855Z,88.11
2023-03-11T00:23:11.949Z,88.02
2023-03-11T00:25:39.552Z,88.59
2023-03-11T00:28:07.951Z,87.99
2023-03-11T00:30:35.658Z,88.49
2023-03-11T00:33:03.325Z,88.57
2023-03-11T00:35:31.450Z,88.44
2023-03-11T00:37:59.178Z,88.59
2023-03-11T00:40:27.029Z,87.85
2023-03-11T00:42:54.574Z,87.91
2023-03-11T00:45:22.656Z,87.91
2023-03-11T00:47:50.677Z,88.36
2023-03-11T00:50:19.166Z,88.25
2023-03-11T00:52:46.835Z,88.75
2023-03-11T00:55:14.461Z,88.09
2023-03-11T00:57:42.024Z,88.47
2023-03-11T01:00:12.321Z,88.13
2023-03-11T01:02:39.893Z,87.83
2023-03-11T01:05:07.678Z,88.50
2023-03-11T01:07:35.713Z,88.46
2023-03-11T01:10:03.324Z,88.36
2023-03-11T01:12:31.327Z,88.41
2023-03-11T01:14:58.912Z,87.88
2023-03-11T01:17:26.513Z,88.25
2023-03-11T01:19:54.105Z,88.28
2023-03-11T01:22:21.734Z,87.70
2023-03-11T01:24:49.703Z,87.98
2023-03-11T01:27:17.284Z,88.26
2023-03-11T01:29:45.078Z,88.60
2023-03-11T01:32:12.748Z,87.81
2023-03-11T01:34:40.365Z,88.14
2023-03-11T01:37:08.302Z,87.75
2023-03-11T01:39:35.847Z,87.72
2023-03-11T01:42:03.417Z,88.27
2023-03-11T01:44:31.067Z,88.38
2023-03-11T01:47:00.318Z,88.16
2023-03-11T01:49:28.440Z,88.02
2023-03-11T01:51:56.490Z,88.10
2023-03-11T01:54:24.099Z,88.34
2023-03-11T01:56:51.829Z,87.85
2023-03-11T01:59:19.975Z,88.23
2023-03-11T02:01:47.908Z,87.67
2023-03-11T02:04:15.501Z,88.14
2023-03-11T02:06:43.146Z,87.79
2023-03-11T02:09:10.742Z,88.15
2023-03-11T02:11:38.323Z,87.78
2023-03-11T02:14:06.742Z,88.12
2023-03-11T02:16:34.328Z,88.10
2023-03-11T02:19:01.957Z,88.11
2023-03-11T02:21:29.548Z,88.07
2023-03-11T02:23:57.080Z,88.04
2023-03-11T02:26:24.910Z,88.11
2023-03-11T02:28:52.516Z,87.89
2023-03-11T02:31:20.500Z,88.38
2023-03-11T02:33:48.119Z,87.70
2023-03-11T02:36:16.171Z,88.11
2023-03-11T02:38:44.168Z,88.03
2023-03-11T02:41:11.758Z,87.87
2023-03-11T02:43:39.606Z,88.31
2023-03-11T02:46:07.157Z,88.25
2023-03-11T02:48:34.722Z,88.09
2023-03-11T02:51:02.680Z,88.46
2023-03-11T02:53:30.277Z,87.99
2023-03-11T02:55:57.861Z,87.85
2023-03-11T02:58:25.449Z,88.42
2023-03-11T03:00:53.126Z,87.85
2023-03-11T03:03:21.117Z,87.91
2023-03-11T03:05:48.850Z,88.57
2023-03-11T03:08:16.426Z,88.48
2023-03-11T03:10:43.979Z,87.97
2023-03-11T03:13:11.534Z,87.99
2023-03-11T03:15:39.552Z,88.62
2023-03-11T03:18:07.598Z,87.50
2023-03-11T03:20:35.445Z,88.01
2023-03-11T03:23:02.999Z,87.72
2023-03-11T03:25:30.524Z,87.30
2023-03-11T03:27:58.508Z,87.50
2023-03-11T03:30:26.069Z,87.73
2023-03-11T03:32:53.893Z,88.13
2023-03-11T03:35:21.525Z,87.99
2023-03-11T03:37:49.085Z,87.59
2023-03-11T03:40:17.448Z,87.68
2023-03-11T03:42:45.074Z,87.48
2023-03-11T03:45:12.707Z,87.68
2023-03-11T03:47:40.293Z,87.45
2023-03-11T03:50:07.921Z,87.55
2023-03-11T03:52:35.922Z,87.64
2023-03-11T03:55:03.475Z,87.91
2023-03-11T03:57:31.410Z,87.14
2023-03-11T03:59:58.972Z,87.73
2023-03-11T04:02:26.905Z,88.07
2023-03-11T04:04:54.933Z,87.71
2023-03-11T04:07:22.525Z,87.25
2023-03-11T04:09:50.151Z,87.70
2023-03-11T04:12:18.420Z,88.14
2023-03-11T04:14:46.003Z,88.01
2023-03-11T04:17:14.215Z,87.94
2023-03-11T04:19:41.836Z,87.96
2023-03-11T04:22:09.634Z,87.36
2023-03-11T04:24:37.557Z,88.08
2023-03-11T04:27:05.172Z,87.90
2023-03-11T04:29:33.227Z,87.62
2023-03-11T04:32:00.815Z,87.96
2023-03-11T04:34:28.454Z,87.56
2023-03-11T04:36:56.024Z,87.82
2023-03-11T04:39:23.617Z,87.83
2023-03-11T04:41:51.634Z,87.49
2023-03-11T04:44:19.229Z,88.02
2023-03-11T04:46:48.133Z,88.20
2023-03-11T04:49:15.780Z,87.48
2023-03-11T04:51:43.347Z,87.85
2023-03-11T04:54:11.316Z,88.30
2023-03-11T04:56:38.939Z,87.62
2023-03-11T04:59:06.748Z,87.81
2023-03-11T05:01:34.359Z,87.79
2023-03-11T05:04:02.004Z,88.07
2023-03-11T05:06:29.955Z,87.84
2023-03-11T05:08:59.136Z,87.46
2023-03-11T05:11:26.746Z,87.69
2023-03-11T05:13:54.306Z,88.17
2023-03-11T05:16:21.951Z,87.85
2023-03-11T05:18:49.977Z,87.91
2023-03-11T05:21:17.532Z,87.69
2023-03-11T05:23:45.766Z,87.78
2023-03-11T05:26:13.482Z,88.11
2023-03-11T05:28:41.084Z,87.82
2023-03-11T05:31:08.726Z,87.92
2023-03-11T05:33:36.399Z,87.98
2023-03-11T05:36:04.025Z,88.02
2023-03-11T05:38:31.651Z,87.75
2023-03-11T05:40:59.369Z,87.76
2023-03-11T05:43:26.986Z,87.79
2023-03-11T05:45:54.619Z,87.81
2023-03-11T05:48:22.233Z,87.45
2023-03-11T05:50:49.814Z,87.78
2023-03-11T05:53:17.807Z,88.07
2023-03-11T05:55:45.484Z,87.66
2023-03-11T05:58:13.091Z,88.08
2023-03-11T06:00:40.725Z,87.64
2023-03-11T06:03:08.332Z,87.67
2023-03-11T06:05:35.958Z,87.52
2023-03-11T06:08:03.997Z,87.31
2023-03-11T06:10:31.656Z,87.65
2023-03-11T06:12:59.218Z,87.25
2023-03-11T06:15:27.278Z,87.70
2023-03-11T06:17:55.044Z,87.70
2023-03-11T06:20:23.065Z,87.79
2023-03-11T06:22:50.640Z,87.55
2023-03-11T06:25:18.280Z,87.48
2023-03-11T06:27:46.220Z,87.03
2023-03-11T06:30:13.960Z,88.09
2023-03-11T06:32:41.971Z,87.41
2023-03-11T06:35:09.547Z,87.35
2023-03-11T06:37:38.467Z,87.40
2023-03-11T06:40:07.604Z,87.70
2023-03-11T06:42:36.428Z,87.66
2023-03-11T06:45:04.396Z,87.53
2023-03-11T06:47:32.043Z,87.54
2023-03-11T06:49:59.801Z,87.52
2023-03-11T06:52:27.372Z,87.04
2023-03-11T06:54:55.012Z,87.17
2023-03-11T06:57:22.987Z,87.10
2023-03-11T06:59:51.918Z,87.30
2023-03-11T07:02:19.641Z,87.11
2023-03-11T07:04:47.227Z,86.98
2023-03-11T07:07:14.811Z,87.14
2023-03-11T07:09:42.770Z,87.33
2023-03-11T07:12:10.385Z,86.56
2023-03-11T07:14:38.234Z,87.07
2023-03-11T07:17:05.879Z,86.75
2023-03-11T07:19:33.484Z,86.88
2023-03-11T07:22:01.946Z,87.12
2023-03-11T07:24:29.657Z,86.99
2023-03-11T07:26:57.428Z,86.93
2023-03-11T07:29:25.054Z,87.10
2023-03-11T07:31:52.765Z,86.94
2023-03-11T07:34:20.790Z,87.11
2023-03-11T07:36:48.399Z,87.37
2023-03-11T07:39:16.325Z,86.93
2023-03-11T07:41:43.964Z,86.44
2023-03-11T07:44:11.929Z,86.82
2023-03-11T07:46:39.900Z,86.16
2023-03-11T07:49:07.657Z,86.30
2023-03-11T07:51:35.267Z,86.31
2023-03-11T07:54:03.094Z,86.10
2023-03-11T07:56:30.798Z,85.67
2023-03-11T07:58:58.841Z,85.44
2023-03-11T08:01:26.610Z,85.52
2023-03-11T08:03:57.105Z,85.70
2023-03-11T08:06:25.339Z,85.34
2023-03-11T08:08:53.095Z,84.71
2023-03-11T08:11:21.034Z,85.37
2023-03-11T08:13:48.733Z,84.67
2023-03-11T08:16:16.590Z,85.22
2023-03-11T08:18:44.334Z,84.67
2023-03-11T08:21:12.129Z,85.35
2023-03-11T08:23:40.111Z,85.37
2023-03-11T08:26:07.802Z,84.77
2023-03-11T08:28:35.649Z,84.72
2023-03-11T08:31:03.531Z,84.49
2023-03-11T08:33:31.249Z,84.07
2023-03-11T08:35:59.345Z,83.91
2023-03-11T08:38:27.358Z,84.43
2023-03-11T08:40:55.216Z,83.85
2023-03-11T08:43:22.799Z,84.01
2023-03-11T08:45:50.821Z,83.88
2023-03-11T08:48:19.299Z,83.29
2023-03-11T08:50:53.865Z,82.72
2023-03-11T08:53:22.329Z,82.67
2023-03-11T08:55:50.050Z,82.17
2023-03-11T08:58:17.789Z,82.02
2023-03-11T09:00:45.798Z,82.03
2023-03-11T09:03:13.829Z,81.34
2023-03-11T09:05:41.750Z,81.62
2023-03-11T09:08:09.506Z,81.18
2023-03-11T09:10:37.694Z,81.91
2023-03-11T09:13:05.733Z,82.01
2023-03-11T09:15:33.522Z,82.00
2023-03-11T09:18:01.365Z,82.31
2023-03-11T09:20:29.119Z,82.16
2023-03-11T09:22:56.789Z,81.69
2023-03-11T09:25:24.871Z,81.43
2023-03-11T09:27:52.595Z,81.78
2023-03-11T09:30:20.508Z,81.40
2023-03-11T09:32:48.483Z,81.22
2023-03-11T09:35:16.219Z,80.85
2023-03-11T09:37:44.362Z,80.62
2023-03-11T09:40:12.058Z,79.80
2023-03-11T09:42:39.928Z,79.75
2023-03-11T09:45:07.732Z,80.23
2023-03-11T09:47:35.486Z,80.19
2023-03-11T09:50:05.275Z,80.83
2023-03-11T09:52:33.259Z,80.45
2023-03-11T09:55:03.245Z,81.28
2023-03-11T09:57:30.927Z,81.46
2023-03-11T09:59:58.699Z,81.64
2023-03-11T10:02:28.289Z,81.96
2023-03-11T10:04:56.326Z,81.72
2023-03-11T10:07:24.608Z,81.95
2023-03-11T10:09:52.405Z,81.34
2023-03-11T10:12:20.171Z,80.05
2023-03-11T10:14:48.607Z,79.00
2023-03-11T10:17:16.836Z,77.68
2023-03-11T10:19:44.913Z,76.31
2023-03-11T10:22:13.863Z,76.59
2023-03-11T10:24:41.553Z,76.92
2023-03-11T10:27:09.648Z,77.56
2023-03-11T10:29:37.429Z,75.64
2023-03-11T10:32:05.453Z,73.44
2023-03-11T10:34:33.567Z,71.43
2023-03-11T10:37:02.298Z,69.62
2023-03-11T10:39:30.404Z,68.22
2023-03-11T10:41:58.175Z,67.47
2023-03-11T10:44:25.925Z,66.62
2023-03-11T10:46:53.623Z,66.35
2023-03-11T10:49:21.312Z,66.03
2023-03-11T10:51:49.760Z,64.83
2023-03-11T10:54:17.606Z,64.12
2023-03-11T10:56:45.599Z,62.81
2023-03-11T10:59:13.616Z,62.98
2023-03-11T11:01:41.353Z,64.07
2023-03-11T11:04:09.225Z,65.67
2023-03-11T11:06:37.125Z,68.50
2023-03-11T11:09:05.090Z,70.75
2023-03-11T11:11:33.009Z,72.12
2023-03-11T11:14:01.088Z,73.65
2023-03-11T11:16:29.153Z,74.89
2023-03-11T11:18:57.133Z,75.46
2023-03-11T11:21:24.984Z,74.47
2023-03-11T11:23:54.026Z,71.93
2023-03-11T11:26:22.016Z,70.21
2023-03-11T11:28:50.222Z,69.34
2023-03-11T11:31:18.032Z,68.87
2023-03-11T11:33:45.788Z,70.79
2023-03-11T11:36:13.828Z,72.63
2023-03-11T11:38:41.513Z,73.96
2023-03-11T11:41:09.452Z,73.63
2023-03-11T11:43:37.990Z,73.00
2023-03-11T11:46:07.356Z,70.63
2023-03-11T11:48:35.262Z,68.64
2023-03-11T11:51:03.365Z,66.94
2023-03-11T11:53:31.562Z,65.99
2023-03-11T11:55:59.352Z,65.53
2023-03-11T11:58:27.454Z,64.93
2023-03-11T12:00:55.435Z,65.83
2023-03-11T12:03:23.960Z,66.02
2023-03-11T12:05:52.386Z,65.99
2023-03-11T12:08:22.447Z,65.78
2023-03-11T12:10:50.388Z,66.32
2023-03-11T12:13:18.334Z,66.99
2023-03-11T12:15:46.138Z,66.31
2023-03-11T12:18:14.483Z,66.38
2023-03-11T12:20:42.532Z,66.10
2023-03-11T12:23:10.356Z,66.66
2023-03-11T12:25:38.143Z,67.54
2023-03-11T12:28:09.607Z,67.94
2023-03-11T12:30:38.916Z,69.31
2023-03-11T12:33:06.970Z,69.44
2023-03-11T12:35:35.827Z,68.64
2023-03-11T12:38:03.664Z,69.15
2023-03-11T12:40:31.554Z,68.82
2023-03-11T12:43:02.455Z,68.49
2023-03-11T12:45:30.287Z,69.17
2023-03-11T12:47:58.218Z,70.42
2023-03-11T12:50:26.341Z,70.87
2023-03-11T12:52:54.680Z,71.00
2023-03-11T12:55:22.560Z,71.51
2023-03-11T12:57:50.456Z,71.98
2023-03-11T13:00:19.319Z,72.99
2023-03-11T13:02:47.820Z,72.71
2023-03-11T13:05:15.993Z,73.54
2023-03-11T13:07:44.892Z,73.00
2023-03-11T13:10:12.738Z,71.66
2023-03-11T13:12:40.919Z,71.46
2023-03-11T13:15:09.272Z,71.75
2023-03-11T13:17:44.334Z,71.71
2023-03-11T13:20:16.730Z,71.77
2023-03-11T13:22:44.768Z,71.35
2023-03-11T13:25:12.518Z,71.39
2023-03-11T13:27:40.537Z,71.41
2023-03-11T13:30:10.525Z,70.93
2023-03-11T13:32:38.787Z,70.19
2023-03-11T13:35:07.074Z,70.68
2023-03-11T13:37:34.949Z,68.99
2023-03-11T13:40:02.766Z,68.95
2023-03-11T13:42:30.777Z,69.25
2023-03-11T13:44:58.890Z,69.92
2023-03-11T13:47:27.011Z,70.24
2023-03-11T13:49:55.096Z,70.61
2023-03-11T13:52:22.866Z,70.44
2023-03-11T13:54:50.766Z,70.45
2023-03-11T13:57:19.235Z,69.99
2023-03-11T13:59:47.251Z,70.05
2023-03-11T14:02:15.067Z,69.52
2023-03-11T14:04:43.025Z,68.26
2023-03-11T14:07:11.025Z,66.48
2023-03-11T14:09:39.763Z,65.04
2023-03-11T14:12:08.172Z,62.97
2023-03-11T14:14:35.982Z,62.19
2023-03-11T14:17:04.346Z,61.44
2023-03-11T14:19:32.918Z,61.88
2023-03-11T14:22:01.076Z,61.80
2023-03-11T14:24:28.940Z,62.63
2023-03-11T14:26:57.033Z,62.47
2023-03-11T14:29:24.933Z,63.05
2023-03-11T14:31:52.874Z,63.88
2023-03-11T14:34:21.330Z,63.84
2023-03-11T14:36:51.193Z,63.89
2023-03-11T14:39:19.089Z,64.18
2023-03-11T14:41:47.448Z,64.03
2023-03-11T14:44:15.348Z,64.69
2023-03-11T14:46:45.265Z,65.51
2023-03-11T14:49:13.445Z,66.74
2023-03-11T14:51:41.370Z,67.72
2023-03-11T14:54:09.376Z,68.02
2023-03-11T14:56:37.492Z,69.05
2023-03-11T14:59:08.520Z,69.24
2023-03-11T15:01:38.938Z,69.77
2023-03-11T15:04:07.329Z,69.37
2023-03-11T15:06:35.259Z,69.70
2023-03-11T15:09:03.335Z,68.38
2023-03-11T15:11:33.284Z,66.48
2023-03-11T15:14:01.406Z,65.61
2023-03-11T15:16:29.588Z,64.73
2023-03-11T15:18:57.411Z,63.89
2023-03-11T15:21:25.234Z,63.28
2023-03-11T15:23:53.658Z,63.24
2023-03-11T15:26:22.809Z,63.18
2023-03-11T15:28:50.717Z,63.60
2023-03-11T15:31:18.795Z,63.74
2023-03-11T15:33:46.699Z,63.59
2023-03-11T15:36:14.641Z,63.26
2023-03-11T15:38:43.310Z,62.69
2023-03-11T15:41:11.432Z,62.45
2023-03-11T15:43:40.537Z,62.73
2023-03-11T15:46:08.601Z,63.04
2023-03-11T15:48:37.439Z,63.59
2023-03-11T15:51:05.711Z,64.15
2023-03-11T15:53:33.807Z,64.83
2023-03-11T15:56:07.374Z,66.06
2023-03-11T15:58:35.930Z,67.18
2023-03-11T16:01:04.654Z,67.16
2023-03-11T16:03:32.795Z,68.10
2023-03-11T16:06:00.851Z,68.49
2023-03-11T16:08:28.625Z,69.23
2023-03-11T16:10:58.258Z,69.87
2023-03-11T16:13:26.580Z,70.00
2023-03-11T16:15:54.764Z,70.41
2023-03-11T16:18:22.606Z,70.61
2023-03-11T16:20:50.552Z,70.89
2023-03-11T16:23:18.398Z,71.18
2023-03-11T16:25:46.524Z,71.18
2023-03-11T16:28:14.657Z,71.45
2023-03-11T16:30:42.474Z,71.46
2023-03-11T16:33:10.758Z,72.07
2023-03-11T16:35:38.890Z,71.82
2023-03-11T16:38:07.456Z,71.97
2023-03-11T16:40:35.318Z,71.82
2023-03-11T16:43:03.318Z,72.18
2023-03-11T16:45:31.220Z,72.27
2023-03-11T16:47:59.026Z,72.15
2023-03-11T16:50:27.714Z,72.74
2023-03-11T16:52:55.770Z,72.44
2023-03-11T16:55:24.061Z,72.68
2023-03-11T16:57:52.087Z,72.88
2023-03-11T17:00:19.998Z,72.84
2023-03-11T17:02:48.226Z,72.73
2023-03-11T17:05:16.758Z,72.65
2023-03-11T17:07:44.656Z,73.20
2023-03-11T17:10:12.597Z,73.02
2023-03-11T17:12:40.573Z,73.10
2023-03-11T17:15:09.021Z,73.31
2023-03-11T17:17:38.653Z,73.37
2023-03-11T17:20:07.855Z,73.36
2023-03-11T17:22:35.868Z,73.45
2023-03-11T17:25:03.938Z,73.55
2023-03-11T17:27:33.379Z,74.04
2023-03-11T17:30:01.671Z,74.06
2023-03-11T17:32:29.566Z,74.10
2023-03-11T17:34:57.805Z,74.08
2023-03-11T17:37:25.610Z,74.00
2023-03-11T17:39:54.196Z,74.12
2023-03-11T17:42:22.311Z,74.05
2023-03-11T17:44:52.094Z,74.51
2023-03-11T17:47:20.721Z,74.67
2023-03-11T17:49:48.719Z,74.42
2023-03-11T17:52:16.556Z,74.69
2023-03-11T17:54:44.639Z,74.30
2023-03-11T17:57:12.811Z,74.37
2023-03-11T17:59:40.675Z,74.55
2023-03-11T18:02:08.628Z,74.13
2023-03-11T18:04:39.647Z,74.40
2023-03-11T18:07:08.549Z,75.02
2023-03-11T18:09:36.401Z,75.09
2023-03-11T18:12:04.539Z,74.82
2023-03-11T18:14:32.595Z,75.42
2023-03-11T18:17:01.110Z,75.37
2023-03-11T18:19:29.173Z,75.58
2023-03-11T18:21:56.961Z,75.58
2023-03-11T18:24:25.236Z,74.96
2023-03-11T18:26:53.197Z,75.21
2023-03-11T18:29:21.460Z,75.35
2023-03-11T18:31:49.438Z,75.22
2023-03-11T18:34:17.655Z,75.85
2023-03-11T18:36:45.535Z,75.59
2023-03-11T18:39:14.079Z,75.69
2023-03-11T18:41:43.347Z,75.51
2023-03-11T18:44:11.631Z,75.65
2023-03-11T18:46:41.697Z,75.74
2023-03-11T18:49:09.690Z,75.71
2023-03-11T18:51:37.607Z,75.51
2023-03-11T18:54:07.571Z,75.55
2023-03-11T18:56:35.572Z,75.72
2023-03-11T18:59:03.291Z,76.04
2023-03-11T19:01:31.346Z,75.34
2023-03-11T19:03:59.364Z,75.64
2023-03-11T19:06:27.187Z,75.32
2023-03-11T19:08:58.056Z,75.11
2023-03-11T19:11:26.148Z,75.79
2023-03-11T19:13:54.226Z,75.15
2023-03-11T19:16:22.201Z,75.41
2023-03-11T19:18:50.892Z,75.55
2023-03-11T19:21:19.420Z,75.83
2023-03-11T19:23:47.315Z,75.44
2023-03-11T19:26:15.301Z,75.55
2023-03-11T19:28:43.499Z,75.41
2023-03-11T19:31:11.741Z,75.86
2023-03-11T19:33:40.039Z,75.12
2023-03-11T19:36:08.070Z,75.81
2023-03-11T19:38:36.043Z,74.89
2023-03-11T19:41:04.039Z,74.95
2023-03-11T19:43:32.181Z,75.38
2023-03-11T19:46:00.383Z,75.38
2023-03-11T19:48:28.483Z,76.24
2023-03-11T19:50:56.471Z,75.77
2023-03-11T19:53:24.855Z,75.92
2023-03-11T19:55:53.049Z,75.48
2023-03-11T19:58:21.087Z,75.94
2023-03-11T20:00:49.094Z,75.67
2023-03-11T20:03:17.229Z,75.34
2023-03-11T20:05:45.070Z,75.72
2023-03-11T20:08:13.394Z,76.11
2023-03-11T20:10:41.601Z,75.95
2023-03-11T20:13:09.514Z,75.35
2023-03-11T20:15:37.742Z,75.78
2023-03-11T20:18:06.560Z,75.74
2023-03-11T20:20:34.742Z,75.62
2023-03-11T20:23:02.879Z,75.53
2023-03-11T20:25:32.655Z,75.99
2023-03-11T20:28:00.560Z,75.71
2023-03-11T20:30:28.511Z,75.80
2023-03-11T20:32:56.984Z,75.71
2023-03-11T20:35:25.227Z,75.40
2023-03-11T20:37:53.600Z,75.56
2023-03-11T20:40:21.601Z,75.01
2023-03-11T20:42:49.958Z,75.48
2023-03-11T20:45:18.435Z,75.42
2023-03-11T20:47:46.566Z,74.95
2023-03-11T20:50:14.482Z,75.40
2023-03-11T20:52:42.350Z,74.80
2023-03-11T20:55:10.498Z,74.85
2023-03-11T20:57:38.922Z,75.03
2023-03-11T21:00:11.263Z,74.76
2023-03-11T21:02:39.416Z,75.18
2023-03-11T21:05:07.746Z,75.11
2023-03-11T21:07:35.555Z,75.26
2023-03-11T21:10:03.726Z,75.27
2023-03-11T21:12:32.093Z,74.83
2023-03-11T21:14:59.736Z,74.99
2023-03-11T21:17:27.696Z,75.58
2023-03-11T21:19:55.638Z,75.55
2023-03-11T21:22:24.213Z,75.49
2023-03-11T21:24:52.932Z,75.72
2023-03-11T21:27:26.482Z,75.98
2023-03-11T21:29:54.730Z,75.32
2023-03-11T21:32:22.814Z,75.50
2023-03-11T21:34:51.114Z,76.34
2023-03-11T21:37:19.334Z,75.46
2023-03-11T21:39:47.186Z,76.06
2023-03-11T21:42:15.856Z,76.50
2023-03-11T21:44:44.072Z,76.49
2023-03-11T21:47:12.490Z,76.72
2023-03-11T21:49:40.536Z,76.00
2023-03-11T21:52:08.516Z,76.78
2023-03-11T21:54:36.328Z,76.66
2023-03-11T21:57:04.178Z,77.10
2023-03-11T21:59:32.702Z,76.85
2023-03-11T22:02:03.500Z,77.13
2023-03-11T22:04:31.686Z,76.93
2023-03-11T22:07:00.142Z,77.25
2023-03-11T22:09:28.098Z,77.73
2023-03-11T22:11:56.743Z,77.25
2023-03-11T22:14:24.808Z,77.31
2023-03-11T22:16:52.825Z,76.76
2023-03-11T22:19:20.575Z,77.06
2023-03-11T22:21:48.988Z,76.95
2023-03-11T22:24:17.190Z,77.30
2023-03-11T22:26:45.067Z,77.19
2023-03-11T22:29:13.745Z,77.14
2023-03-11T22:31:41.795Z,77.43
2023-03-11T22:34:09.596Z,77.14
2023-03-11T22:36:37.830Z,76.99
2023-03-11T22:39:05.998Z,77.29
2023-03-11T22:41:33.868Z,76.97
2023-03-11T22:44:01.775Z,77.24
2023-03-11T22:46:29.605Z,77.05
2023-03-11T22:48:58.248Z,77.34
2023-03-11T22:51:26.132Z,76.93
2023-03-11T22:53:53.850Z,76.88
2023-03-11T22:56:21.586Z,77.16
2023-03-11T22:58:49.425Z,77.24
2023-03-11T23:01:17.998Z,77.02
2023-03-11T23:03:49.033Z,77.42
2023-03-11T23:06:16.792Z,77.39
2023-03-11T23:08:44.466Z,76.72
2023-03-11T23:11:12.502Z,77.20
2023-03-11T23:13:40.330Z,76.41
2023-03-11T23:16:09.224Z,76.86
2023-03-11T23:18:36.889Z,77.03
2023-03-11T23:21:04.632Z,76.78
2023-03-11T23:23:32.301Z,76.96
2023-03-11T23:26:00.819Z,76.51
2023-03-11T23:28:28.735Z,76.84
2023-03-11T23:30:56.570Z,77.25
2023-03-11T23:33:24.631Z,76.60
2023-03-11T23:35:52.398Z,76.69
2023-03-11T23:38:20.408Z,76.10
2023-03-11T23:40:48.060Z,76.38
2023-03-11T23:43:15.690Z,76.80
2023-03-11T23:45:43.377Z,76.17
2023-03-11T23:48:11.003Z,76.58
2023-03-11T23:50:39.034Z,76.34
2023-03-11T23:53:07.098Z,76.33
2023-03-11T23:55:35.127Z,76.10
2023-03-11T23:58:02.872Z,76.45
